Time;durP1;ratioP1;P1;durP2;ratioP2;P2;SDS_P1;SDS_P2;PMS_P1;PMS_P2;Temp;Humidity;BMP_temperature;BMP_pressure;BME280_temperature;BME280_humidity;BME280_pressure;Samples;Min_cycle;Max_cycle;Signal;HPM_P1;HPM_P2
2022/11/05 00:11:01;;;;;;;20.85;5.30;;;;;;;5.83;100.00;100495.91;4872564;29;20052;-74
2022/11/05 00:19:07;;;;;;;19.92;5.45;;;;;;;5.80;100.00;100498.84;4925009;29;20060;-72
2022/11/05 00:27:03;;;;;;;23.48;7.60;;;;;;;5.87;100.00;100508.75;4934510;29;20061;-74
2022/11/05 00:29:28;;;;;;;23.13;8.07;;;;;;;5.80;100.00;100506.81;4902197;29;20465;-74
2022/11/05 00:31:54;;;;;;;30.67;9.47;;;;;;;5.80;100.00;100512.94;4923261;29;20124;-74
2022/11/05 00:34:19;;;;;;;18.63;7.00;;;;;;;5.83;100.00;100517.97;4906199;29;20043;-73
2022/11/05 00:36:44;;;;;;;21.33;7.17;;;;;;;5.81;100.00;100509.31;4921296;29;20046;-75
2022/11/05 00:39:10;;;;;;;24.87;7.90;;;;;;;5.85;100.00;100520.47;4928306;29;20353;-74
2022/11/05 00:41:35;;;;;;;23.23;7.77;;;;;;;5.76;100.00;100516.84;4940865;29;20527;-74
2022/11/05 00:46:44;;;;;;;29.88;7.63;;;;;;;5.75;100.00;100520.47;4922695;29;20031;-74
2022/11/05 00:54:39;;;;;;;21.42;7.53;;;;;;;5.39;100.00;100527.22;4922118;29;20052;-74
2022/11/05 00:57:04;;;;;;;26.57;8.37;;;;;;;5.32;100.00;100529.56;4892348;29;20047;-74
2022/11/05 00:59:29;;;;;;;17.67;6.45;;;;;;;5.30;100.00;100531.50;4937650;29;20322;-75
2022/11/05 01:01:55;;;;;;;26.90;6.53;;;;;;;5.34;100.00;100532.03;4905941;29;20480;-74
2022/11/05 01:04:20;;;;;;;24.03;6.67;;;;;;;5.30;100.00;100528.84;4922421;29;20035;-74
2022/11/05 01:06:46;;;;;;;17.67;7.10;;;;;;;5.24;100.00;100526.72;4919292;29;20978;-74
2022/11/05 01:09:11;;;;;;;16.30;6.30;;;;;;;5.18;100.00;100530.75;4919443;29;20512;-74
2022/11/05 01:11:36;;;;;;;23.73;7.47;;;;;;;5.15;100.00;100538.09;4916864;29;20294;-73
2022/11/05 01:14:07;;;;;;;20.30;7.83;;;;;;;5.31;100.00;100543.75;4926180;29;20032;-73
2022/11/05 01:16:33;;;;;;;22.60;6.63;;;;;;;5.28;100.00;100544.00;4919246;29;20040;-74
2022/11/05 01:18:59;;;;;;;24.98;7.47;;;;;;;5.31;100.00;100546.38;4922709;29;20075;-74
2022/11/05 01:21:25;;;;;;;19.83;7.35;;;;;;;5.27;100.00;100556.41;4922473;29;20110;-74
2022/11/05 01:23:50;;;;;;;21.15;7.28;;;;;;;5.32;100.00;100550.72;4902916;29;20513;-74
2022/11/05 01:26:15;;;;;;;18.90;7.30;;;;;;;5.21;100.00;100548.16;4918713;29;20032;-74
2022/11/05 01:28:41;;;;;;;18.70;6.57;;;;;;;5.24;100.00;100548.75;4920351;29;20174;-74
2022/11/05 01:31:06;;;;;;;26.20;8.27;;;;;;;5.21;100.00;100553.47;4921086;29;20035;-74
2022/11/05 01:33:31;;;;;;;25.20;6.90;;;;;;;5.29;100.00;100556.25;4904965;29;20496;-73
2022/11/05 01:35:57;;;;;;;24.03;7.23;;;;;;;5.31;100.00;100551.69;4935883;29;20032;-74
2022/11/05 01:38:22;;;;;;;21.97;7.53;;;;;;;5.35;100.00;100550.44;4923223;29;20032;-74
2022/11/05 01:40:47;;;;;;;23.35;6.93;;;;;;;5.32;100.00;100548.06;4904080;29;20028;-74
2022/11/05 01:43:22;;;;;;;24.83;7.63;;;;;;;5.39;100.00;100551.03;4926535;29;20039;-74
2022/11/05 01:45:54;;;;;;;21.80;5.75;;;;;;;5.25;100.00;100549.59;4945636;28;20059;-74
2022/11/05 01:48:24;;;;;;;22.52;6.53;;;;;;;5.22;100.00;100544.53;4923672;29;20478;-73
2022/11/05 01:50:59;;;;;;;15.00;6.07;;;;;;;5.19;100.00;100550.09;4921223;29;20048;-73
2022/11/05 01:53:35;;;;;;;19.67;6.18;;;;;;;5.10;100.00;100540.31;4921739;29;20035;-72
2022/11/05 01:56:00;;;;;;;25.95;6.82;;;;;;;5.10;100.00;100548.25;4936521;29;20046;-72
2022/11/05 01:58:32;;;;;;;16.50;5.80;;;;;;;4.92;100.00;100546.22;4917734;29;20611;-72
2022/11/05 02:00:58;;;;;;;16.27;5.38;;;;;;;4.90;100.00;100536.75;4922004;29;20434;-72
2022/11/05 02:03:24;;;;;;;18.30;6.18;;;;;;;4.76;100.00;100529.97;4922567;29;20047;-72
2022/11/05 02:05:53;;;;;;;18.75;5.22;;;;;;;4.79;100.00;100542.94;4918447;29;20067;-72
2022/11/05 02:08:32;;;;;;;24.80;6.22;;;;;;;5.08;100.00;100546.59;4914470;29;20105;-72
2022/11/05 02:10:58;;;;;;;17.48;4.97;;;;;;;5.11;100.00;100550.78;4928763;29;20182;-72
2022/11/05 02:13:23;;;;;;;18.13;6.05;;;;;;;5.08;100.00;100543.94;4918295;29;20544;-72
2022/11/05 02:16:09;;;;;;;16.57;5.67;;;;;;;5.04;100.00;100552.28;4927636;29;20050;-72
2022/11/05 02:18:45;;;;;;;47.28;8.85;;;;;;;4.89;100.00;100546.47;4914243;29;20051;-72
2022/11/05 02:21:48;;;;;;;14.20;5.50;;;;;;;4.72;100.00;100541.78;4918286;29;20039;-72
2022/11/05 02:24:54;;;;;;;24.08;6.63;;;;;;;4.67;100.00;100539.53;4927773;29;20384;-74
2022/11/05 02:27:49;;;;;;;13.30;4.50;;;;;;;4.51;100.00;100539.97;4863215;29;20470;-74
2022/11/05 02:30:41;;;;;;;20.25;5.75;;;;;;;4.41;100.00;100534.59;4929128;29;20109;-75
2022/11/05 02:33:27;;;;;;;22.50;5.80;;;;;;;4.34;100.00;100529.97;4917759;29;20052;-75
2022/11/05 02:36:23;;;;;;;18.63;4.43;;;;;;;4.38;100.00;100528.75;4920386;29;20037;-74
2022/11/05 02:39:10;;;;;;;17.70;4.50;;;;;;;4.42;100.00;100530.16;4921490;29;20032;-75
2022/11/05 02:41:49;;;;;;;19.55;4.85;;;;;;;4.42;100.00;100532.78;4946326;28;20035;-74
2022/11/05 02:44:30;;;;;;;20.65;4.95;;;;;;;4.50;100.00;100545.41;4933357;29;20035;-74
2022/11/05 02:47:12;;;;;;;16.95;4.85;;;;;;;4.58;100.00;100535.84;4936620;29;20054;-74
2022/11/05 02:50:07;;;;;;;20.55;5.97;;;;;;;4.60;100.00;100539.19;4927496;29;20028;-74
2022/11/05 02:53:00;;;;;;;15.80;5.30;;;;;;;4.61;100.00;100543.53;4888209;29;20040;-74
2022/11/05 02:55:36;;;;;;;17.65;5.68;;;;;;;4.74;100.00;100545.97;4902851;29;20486;-74
2022/11/05 02:58:03;;;;;;;20.70;6.00;;;;;;;4.69;100.00;100547.34;4907217;29;20455;-74
2022/11/05 03:00:38;;;;;;;18.35;5.70;;;;;;;4.74;100.00;100550.41;4922503;29;20024;-75
2022/11/05 03:03:06;;;;;;;15.90;5.63;;;;;;;4.57;100.00;100557.13;4900123;29;20044;-74
2022/11/05 03:06:06;;;;;;;22.25;6.28;;;;;;;4.69;100.00;100549.97;4872071;29;20044;-75
2022/11/05 03:08:40;;;;;;;20.02;5.85;;;;;;;4.79;100.00;100551.69;4883016;29;20938;-74
2022/11/05 03:11:21;;;;;;;23.00;5.35;;;;;;;4.85;100.00;100555.66;4906929;29;20124;-74
2022/11/05 03:14:25;;;;;;;22.05;6.63;;;;;;;4.70;100.00;100563.06;4906392;29;20140;-74
2022/11/05 03:17:16;;;;;;;15.20;6.35;;;;;;;4.79;100.00;100557.00;4921540;29;20048;-74
2022/11/05 03:19:52;;;;;;;20.73;6.57;;;;;;;4.71;100.00;100556.81;4922400;29;20191;-74
2022/11/05 03:22:24;;;;;;;24.50;8.27;;;;;;;4.90;100.00;100560.56;4906948;29;20052;-74
2022/11/05 03:24:56;;;;;;;22.48;6.78;;;;;;;4.78;100.00;100565.06;4934190;29;20044;-75
2022/11/05 03:27:28;;;;;;;27.00;7.03;;;;;;;4.72;100.00;100561.13;4919596;29;20040;-73
2022/11/05 03:29:59;;;;;;;31.98;7.60;;;;;;;4.79;100.00;100561.44;4902845;29;20038;-75
2022/11/05 03:32:29;;;;;;;29.40;7.10;;;;;;;4.79;100.00;100574.66;4926219;29;20610;-75
2022/11/05 03:35:34;;;;;;;28.20;7.88;;;;;;;4.72;100.00;100579.63;4924702;29;20047;-74
2022/11/05 03:38:09;;;;;;;32.00;7.75;;;;;;;5.04;100.00;100584.03;4920655;29;20035;-74
2022/11/05 03:40:37;;;;;;;28.63;9.95;;;;;;;5.02;100.00;100580.66;4887142;29;20166;-75
2022/11/05 03:43:06;;;;;;;40.00;11.18;;;;;;;4.98;100.00;100590.66;4927979;29;20410;-74
2022/11/05 03:45:40;;;;;;;30.30;7.90;;;;;;;5.11;100.00;100589.63;4918414;29;20039;-71
2022/11/05 03:48:09;;;;;;;29.67;8.05;;;;;;;4.99;100.00;100597.66;4921449;29;20149;-72
2022/11/05 03:50:47;;;;;;;24.60;7.13;;;;;;;5.12;100.00;100593.94;4902621;29;20057;-72
2022/11/05 03:53:17;;;;;;;26.98;7.03;;;;;;;5.14;100.00;100595.50;4899659;29;20181;-72
2022/11/05 03:56:03;;;;;;;21.48;7.65;;;;;;;5.04;100.00;100598.09;4918121;29;20039;-72
2022/11/05 03:58:29;;;;;;;20.42;6.72;;;;;;;5.03;100.00;100599.06;4903021;29;20083;-75
2022/11/05 04:00:59;;;;;;;26.92;8.00;;;;;;;5.08;100.00;100596.88;4916995;29;20079;-75
2022/11/05 04:03:25;;;;;;;19.52;6.82;;;;;;;5.04;100.00;100602.53;4899492;29;20036;-75
2022/11/05 04:14:07;;;;;;;24.45;6.55;;;;;;;4.82;100.00;100609.66;4913395;29;20036;-74
2022/11/05 04:24:07;;;;;;;18.50;5.18;;;;;;;4.79;100.00;100606.41;4914693;29;20022;-74
2022/11/05 04:24:45;;;;;;;15.65;6.68;;;;;;;5.03;100.00;100622.88;4935604;29;20341;-75
2022/11/05 04:27:11;;;;;;;32.73;6.93;;;;;;;5.02;100.00;100621.19;4922313;29;20040;-75
2022/11/05 04:32:20;;;;;;;16.20;5.82;;;;;;;5.12;100.00;100617.75;4915092;29;20070;-75
2022/11/05 04:34:46;;;;;;;22.00;5.22;;;;;;;5.01;100.00;100621.31;4919502;29;20075;-74
2022/11/05 04:37:11;;;;;;;18.73;5.77;;;;;;;4.88;100.00;100618.88;4919353;29;20035;-73
2022/11/05 04:39:36;;;;;;;16.97;5.33;;;;;;;4.98;100.00;100621.56;4905287;29;20083;-74
2022/11/05 04:42:02;;;;;;;22.53;5.57;;;;;;;5.13;100.00;100619.44;4902397;29;20095;-75
2022/11/05 04:44:27;;;;;;;26.10;5.30;;;;;;;4.95;100.00;100621.84;4919491;29;20032;-75
2022/11/05 04:46:53;;;;;;;20.77;6.10;;;;;;;4.78;100.00;100620.63;4920923;29;20036;-75
2022/11/05 04:49:18;;;;;;;28.17;6.13;;;;;;;4.61;100.00;100607.00;4905975;29;20040;-75
2022/11/05 04:51:43;;;;;;;14.87;4.50;;;;;;;4.56;100.00;100614.44;4922903;29;20039;-75
2022/11/05 04:54:09;;;;;;;19.20;5.47;;;;;;;4.53;100.00;100611.22;4905930;29;20039;-74
2022/11/05 04:56:34;;;;;;;28.87;8.50;;;;;;;4.46;100.00;100615.34;4920924;29;20053;-75
2022/11/05 04:58:59;;;;;;;16.20;5.00;;;;;;;4.55;100.00;100626.00;4919611;29;20020;-75
2022/11/05 05:01:25;;;;;;;21.23;5.77;;;;;;;4.50;100.00;100622.91;4887095;29;20529;-75
2022/11/05 05:03:51;;;;;;;21.03;6.90;;;;;;;4.68;100.00;100631.09;4904886;29;20090;-72
2022/11/05 05:06:17;;;;;;;17.23;6.03;;;;;;;4.59;100.00;100643.28;4922766;29;20036;-72
2022/11/05 05:08:43;;;;;;;;;;;;;;;4.72;100.00;100634.34;4888984;29;20043;-72
2022/11/05 05:11:10;;;;;;;;;;;;;;;4.64;100.00;100645.56;4896295;29;19922;-71
2022/11/05 05:13:36;;;;;;;14.82;5.60;;;;;;;4.60;100.00;100639.66;4910702;29;20729;-72
2022/11/05 05:16:06;;;;;;;16.63;5.37;;;;;;;4.63;100.00;100634.13;4923853;29;20043;-72
2022/11/05 05:18:31;;;;;;;18.92;5.45;;;;;;;4.58;100.00;100633.66;4915461;28;20780;-71
2022/11/05 05:23:42;;;;;;;15.00;5.55;;;;;;;4.73;100.00;100643.94;4931752;29;20516;-71
2022/11/05 05:26:07;;;;;;;17.50;5.00;;;;;;;4.84;100.00;100638.59;4922222;29;20028;-72
2022/11/05 05:28:33;;;;;;;14.23;4.73;;;;;;;4.70;100.00;100636.28;4856584;28;20134;-72
2022/11/05 05:30:59;;;;;;;19.25;5.57;;;;;;;4.71;100.00;100630.88;4913204;29;20043;-72
2022/11/05 05:33:28;;;;;;;20.25;4.93;;;;;;;4.85;100.00;100649.06;4892237;29;20047;-72
2022/11/05 05:35:57;;;;;;;19.98;4.25;;;;;;;4.71;100.00;100637.97;4936765;29;20107;-74
2022/11/05 05:38:22;;;;;;;13.75;4.78;;;;;;;4.59;100.00;100645.94;4920929;29;20071;-74
2022/11/05 05:40:49;;;;;;;22.90;5.90;;;;;;;4.64;100.00;100643.75;4921620;29;20059;-74
2022/11/05 05:43:14;;;;;;;13.27;4.55;;;;;;;4.54;100.00;100642.84;4904946;29;20027;-73
2022/11/05 05:45:40;;;;;;;18.27;4.78;;;;;;;4.49;100.00;100642.34;4928962;29;20568;-74
2022/11/05 05:48:05;;;;;;;15.37;4.40;;;;;;;4.39;100.00;100636.97;4929899;29;20034;-75
2022/11/05 05:50:30;;;;;;;13.93;3.97;;;;;;;4.46;100.00;100642.63;4932097;29;20036;-74
2022/11/05 05:53:05;;;;;;;12.20;4.95;;;;;;;4.50;100.00;100644.06;4925080;29;20036;-74
2022/11/05 05:55:30;;;;;;;16.67;4.73;;;;;;;4.42;100.00;100651.75;4913853;29;20043;-75
2022/11/05 05:57:56;;;;;;;12.83;4.20;;;;;;;4.45;100.00;100654.16;4922004;29;20044;-75
2022/11/05 06:00:21;;;;;;;11.93;4.10;;;;;;;4.30;100.00;100647.47;4906293;29;20131;-71
2022/11/05 06:02:46;;;;;;;19.17;4.50;;;;;;;4.29;100.00;100645.81;4903573;29;20526;-71
2022/11/05 06:05:12;;;;;;;13.83;4.07;;;;;;;4.36;100.00;100655.75;4921476;29;20334;-71
2022/11/05 06:07:37;;;;;;;12.33;5.37;;;;;;;4.37;100.00;100662.69;4920364;29;20458;-71
2022/11/05 06:10:05;;;;;;;20.20;4.03;;;;;;;4.46;100.00;100662.94;4904599;29;20038;-72
2022/11/05 06:12:30;;;;;;;18.02;4.03;;;;;;;4.52;100.00;100673.00;4904700;29;20089;-74
2022/11/05 06:14:55;;;;;;;18.30;4.50;;;;;;;4.62;100.00;100685.34;4917925;29;20899;-74
2022/11/05 06:17:21;;;;;;;20.50;4.97;;;;;;;4.68;100.00;100672.56;4931804;29;20047;-74
2022/11/05 06:19:46;;;;;;;16.67;3.87;;;;;;;4.75;100.00;100679.03;4921321;29;20032;-74
2022/11/05 06:22:12;;;;;;;14.50;3.90;;;;;;;4.68;100.00;100675.22;4910966;29;20032;-75
2022/11/05 06:24:37;;;;;;;15.27;4.18;;;;;;;4.57;100.00;100674.31;4902768;29;20027;-74
2022/11/05 06:27:04;;;;;;;14.47;4.43;;;;;;;4.49;100.00;100676.72;4887567;29;20074;-74
2022/11/05 06:29:29;;;;;;;;;;;;;;;4.54;100.00;100682.50;4921909;29;20467;-74
2022/11/05 06:31:54;;;;;;;16.88;4.47;;;;;;;4.49;100.00;100679.38;4919420;29;19915;-74
2022/11/05 06:34:20;;;;;;;12.97;4.10;;;;;;;4.49;100.00;100684.66;4926477;29;20597;-73
2022/11/05 06:36:45;;;;;;;15.07;4.23;;;;;;;4.54;100.00;100681.63;4920181;29;20151;-76
2022/11/05 06:39:11;;;;;;;17.17;4.37;;;;;;;4.55;100.00;100686.81;4921158;29;20079;-74
2022/11/05 06:41:37;;;;;;;11.35;4.10;;;;;;;4.47;100.00;100686.56;4929792;29;20461;-74
2022/11/05 06:44:02;;;;;;;23.45;4.43;;;;;;;4.40;100.00;100690.69;4917544;29;20119;-74
2022/11/05 06:46:28;;;;;;;15.80;3.45;;;;;;;4.40;100.00;100690.69;4917573;29;20032;-74
2022/11/05 06:48:53;;;;;;;16.05;3.60;;;;;;;4.44;100.00;100697.41;4920359;29;20024;-74
2022/11/05 06:51:19;;;;;;;11.10;3.63;;;;;;;4.71;100.00;100712.03;4920844;29;20486;-74
2022/11/05 06:53:45;;;;;;;9.45;3.75;;;;;;;4.79;100.00;100709.56;4918757;29;20086;-74
2022/11/05 06:56:10;;;;;;;11.97;4.63;;;;;;;4.80;100.00;100714.75;4934232;29;20940;-74
2022/11/05 06:58:36;;;;;;;22.98;4.57;;;;;;;4.89;100.00;100717.59;4930578;29;20989;-75
2022/11/05 07:01:03;;;;;;;24.67;5.10;;;;;;;5.19;100.00;100722.13;4917002;29;20062;-75
2022/11/05 07:03:29;;;;;;;10.52;3.50;;;;;;;5.32;100.00;100733.41;4932033;29;20445;-72
2022/11/05 07:05:56;;;;;;;13.77;3.60;;;;;;;5.43;100.00;100730.69;4920515;29;20032;-72
2022/11/05 07:08:23;;;;;;;13.10;3.20;;;;;;;5.65;100.00;100744.75;4934529;29;20051;-72
2022/11/05 07:10:48;;;;;;;12.07;4.00;;;;;;;5.73;100.00;100734.31;4920476;29;20035;-72
2022/11/05 07:13:13;;;;;;;14.90;3.57;;;;;;;6.03;100.00;100722.91;4920612;29;20103;-73
2022/11/05 07:15:39;;;;;;;13.27;3.93;;;;;;;6.31;100.00;100728.47;4919039;29;20126;-74
2022/11/05 07:18:06;;;;;;;7.23;2.57;;;;;;;6.55;100.00;100730.75;4938052;29;20110;-75
2022/11/05 07:20:32;;;;;;;7.68;2.75;;;;;;;6.64;100.00;100735.22;4931554;29;20094;-76
2022/11/05 07:23:02;;;;;;;13.55;3.03;;;;;;;6.71;100.00;100709.00;4920140;29;20591;-74
2022/11/05 07:25:28;;;;;;;11.40;3.25;;;;;;;6.78;100.00;100714.59;4920093;29;20036;-75
2022/11/05 07:27:53;;;;;;;15.40;4.40;;;;;;;6.98;100.00;100710.97;4917411;29;20616;-74
2022/11/05 07:30:19;;;;;;;14.60;3.50;;;;;;;7.03;100.00;100698.09;4923467;29;20078;-74
2022/11/05 07:32:44;;;;;;;13.37;3.67;;;;;;;7.32;100.00;100691.91;4918611;29;20055;-75
2022/11/05 07:35:09;;;;;;;10.07;2.70;;;;;;;7.61;100.00;100684.72;4916697;29;20035;-74
2022/11/05 07:37:45;;;;;;;15.00;3.13;;;;;;;8.01;100.00;100683.59;4917465;29;20102;-72
2022/11/05 07:40:12;;;;;;;16.85;3.08;;;;;;;8.16;100.00;100664.47;4920540;29;20031;-73
2022/11/05 07:42:50;;;;;;;14.00;2.65;;;;;;;8.20;100.00;100647.25;4927211;29;20062;-72
2022/11/05 07:45:16;;;;;;;13.63;3.08;;;;;;;8.33;100.00;100631.72;4927475;29;20031;-74
2022/11/05 07:47:46;;;;;;;10.02;2.78;;;;;;;8.52;100.00;100619.31;4912409;29;20046;-76
2022/11/05 07:50:12;;;;;;;8.10;2.70;;;;;;;9.01;100.00;100614.38;4918786;29;20184;-72
2022/11/05 07:52:38;;;;;;;6.35;2.05;;;;;;;9.13;100.00;100593.66;4920386;29;20126;-72
2022/11/05 07:55:04;;;;;;;9.07;3.20;;;;;;;9.25;100.00;100561.28;4918328;29;20071;-72
2022/11/05 07:57:29;;;;;;;4.40;1.85;;;;;;;8.93;100.00;100534.47;4920372;29;20039;-72
2022/11/05 07:59:54;;;;;;;7.90;2.50;;;;;;;9.15;100.00;100533.09;4913714;29;20035;-72
2022/11/05 08:02:20;;;;;;;6.53;2.30;;;;;;;9.25;100.00;100513.34;4939652;29;20134;-71
2022/11/05 08:04:45;;;;;;;6.80;1.73;;;;;;;9.61;100.00;100507.81;4919782;29;20039;-72
2022/11/05 08:07:10;;;;;;;7.30;2.03;;;;;;;9.93;100.00;100455.56;4919719;29;20473;-73
2022/11/05 08:09:36;;;;;;;8.53;2.50;;;;;;;10.35;100.00;100420.72;4919095;29;20100;-72
2022/11/05 08:12:01;;;;;;;10.17;2.10;;;;;;;10.27;100.00;100377.19;4916734;29;20115;-74
2022/11/05 08:14:27;;;;;;;9.43;2.13;;;;;;;10.44;100.00;100338.81;4880165;29;20031;-72
2022/11/05 08:16:52;;;;;;;8.27;2.50;;;;;;;11.04;100.00;100291.16;4906407;29;20187;-72
2022/11/05 08:19:17;;;;;;;7.47;2.17;;;;;;;11.09;100.00;100232.66;4918542;29;20023;-72
2022/11/05 08:21:43;;;;;;;7.03;1.83;;;;;;;12.09;100.00;100178.91;4921913;29;20482;-72
2022/11/05 08:24:08;;;;;;;7.13;2.20;;;;;;;11.67;100.00;100013.75;4893956;29;20032;-72
2022/11/05 08:26:33;;;;;;;8.67;2.33;;;;;;;11.24;100.00;99960.16;4922128;29;20446;-72
2022/11/05 08:28:59;;;;;;;7.53;1.93;;;;;;;11.02;100.00;100002.00;4928598;29;20043;-71
2022/11/05 08:31:25;;;;;;;12.13;2.83;;;;;;;11.26;100.00;100028.47;4923752;29;20044;-72
2022/11/05 08:33:50;;;;;;;5.55;2.20;;;;;;;11.93;100.00;99999.91;4915558;29;20402;-72
2022/11/05 08:36:16;;;;;;;12.43;2.42;;;;;;;12.03;100.00;99888.88;4923355;29;20028;-73
2022/11/05 08:38:41;;;;;;;12.50;3.10;;;;;;;11.82;100.00;99828.19;4920420;29;20040;-74
2022/11/05 08:41:06;;;;;;;9.57;1.80;;;;;;;10.45;100.00;99741.88;4920015;29;20771;-72
2022/11/05 08:43:32;;;;;;;5.17;2.67;;;;;;;10.89;100.00;100024.03;4910866;29;20184;-72
2022/11/05 08:46:00;;;;;;;5.30;2.10;;;;;;;11.45;100.00;100128.66;4921858;29;20548;-71
2022/11/05 08:48:25;;;;;;;9.85;2.58;;;;;;;11.87;100.00;100027.34;4906565;29;20075;-72
2022/11/05 08:50:50;;;;;;;4.67;2.40;;;;;;;11.67;100.00;99945.06;4909265;29;20146;-71
2022/11/05 08:53:16;;;;;;;5.57;2.10;;;;;;;12.33;100.00;99903.94;4886792;29;20183;-74
2022/11/05 08:55:42;;;;;;;7.65;2.40;;;;;;;12.27;100.00;99738.78;4937756;29;20114;-72
2022/11/05 08:58:14;;;;;;;5.85;2.47;;;;;;;12.65;100.00;99681.06;4922197;29;20841;-72
2022/11/05 09:00:40;;;;;;;5.60;2.20;;;;;;;13.17;100.00;99619.72;4921181;29;20062;-72
2022/11/05 09:03:07;;;;;;;8.05;2.15;;;;;;;13.23;100.00;99500.16;4937018;29;20020;-72
2022/11/05 09:05:37;;;;;;;7.72;1.70;;;;;;;13.64;100.00;99414.00;4929159;29;20031;-73
2022/11/05 09:08:08;;;;;;;4.40;1.80;;;;;;;13.31;100.00;99387.38;4909821;29;20031;-72
2022/11/05 09:10:34;;;;;;;5.10;1.67;;;;;;;13.56;100.00;99371.38;4919983;29;20035;-72
2022/11/05 09:13:00;;;;;;;10.10;2.00;;;;;;;13.47;100.00;99321.72;4922902;29;20032;-73
2022/11/05 09:15:25;;;;;;;7.07;1.40;;;;;;;13.89;100.00;99416.75;4922491;29;20034;-72
2022/11/05 09:17:50;;;;;;;5.37;1.90;;;;;;;13.98;100.00;99250.13;4920962;29;20051;-71
2022/11/05 09:20:16;;;;;;;5.83;2.27;;;;;;;14.16;100.00;99266.25;4919683;29;20465;-74
2022/11/05 09:22:41;;;;;;;9.70;1.60;;;;;;;14.03;100.00;99102.72;4928882;29;20409;-74
2022/11/05 09:25:07;;;;;;;11.43;2.33;;;;;;;14.11;100.00;99072.88;4928986;29;20315;-72
2022/11/05 09:27:32;;;;;;;7.03;2.15;;;;;;;13.19;99.07;98840.53;4938142;29;20381;-71
2022/11/05 09:29:58;;;;;;;4.83;2.10;;;;;;;13.83;100.00;99215.59;4930235;29;20039;-71
2022/11/05 09:32:23;;;;;;;12.77;2.90;;;;;;;14.37;100.00;99286.47;4902622;29;20070;-75
2022/11/05 09:34:49;;;;;;;12.23;2.73;;;;;;;14.31;95.27;98865.94;4927059;29;20059;-71
2022/11/05 09:37:14;;;;;;;8.70;1.87;;;;;;;14.05;96.31;98983.38;4901937;29;20486;-72
2022/11/05 09:39:40;;;;;;;7.40;2.47;;;;;;;13.75;97.08;99028.97;4919154;29;20063;-73
2022/11/05 09:42:14;;;;;;;4.83;1.83;;;;;;;13.61;97.43;98950.56;4922939;29;20038;-71
2022/11/05 09:44:47;;;;;;;12.60;2.35;;;;;;;13.61;96.86;98992.63;4943610;29;20133;-71
2022/11/05 09:47:19;;;;;;;10.13;1.70;;;;;;;14.15;98.20;99237.78;4952304;28;20111;-73
2022/11/05 09:49:49;;;;;;;6.53;1.77;;;;;;;14.53;94.13;99022.72;4944427;28;20035;-73
2022/11/05 09:52:24;;;;;;;16.05;1.85;;;;;;;14.28;93.47;98939.69;4929917;29;20035;-72
2022/11/05 09:54:50;;;;;;;9.23;2.00;;;;;;;14.34;92.45;98901.19;4927740;29;20043;-72
2022/11/05 09:57:20;;;;;;;7.82;3.05;;;;;;;13.89;92.98;98829.25;4912666;29;20346;-72
2022/11/05 09:59:55;;;;;;;6.68;1.40;;;;;;;13.28;97.84;99128.66;4909288;29;20924;-72
2022/11/05 10:02:24;;;;;;;3.80;1.27;;;;;;;13.49;100.00;99425.03;4921945;29;20028;-73
2022/11/05 10:04:54;;;;;;;7.30;1.15;;;;;;;12.67;100.00;99231.84;4922997;29;20398;-72
2022/11/05 10:07:27;;;;;;;5.30;1.58;;;;;;;12.64;100.00;99485.78;4942054;29;20082;-71
2022/11/05 10:10:00;;;;;;;4.32;1.33;;;;;;;12.15;100.00;99452.22;4930205;29;20058;-71
2022/11/05 10:12:48;;;;;;;5.85;1.48;;;;;;;11.82;100.00;99610.72;4921965;29;20039;-73
2022/11/05 10:15:23;;;;;;;16.77;1.83;;;;;;;11.76;100.00;99786.16;4895767;29;20519;-72
2022/11/05 10:18:13;;;;;;;6.95;1.60;;;;;;;12.11;100.00;99901.28;4908627;29;20128;-72
2022/11/05 10:20:38;;;;;;;9.52;2.10;;;;;;;11.69;100.00;99706.94;4886685;29;20036;-71
2022/11/05 10:23:24;;;;;;;3.57;1.33;;;;;;;11.80;100.00;99843.59;4921454;29;20686;-74
2022/11/05 10:25:53;;;;;;;6.47;1.30;;;;;;;11.66;100.00;99873.06;4943082;29;20047;-72
2022/11/05 10:28:21;;;;;;;4.20;1.45;;;;;;;11.89;100.00;100044.06;4916962;29;20118;-72
2022/11/05 10:30:50;;;;;;;5.28;1.95;;;;;;;12.44;100.00;100015.84;4942627;29;20613;-71
2022/11/05 10:33:43;;;;;;;6.30;1.10;;;;;;;13.49;100.00;99880.03;4924816;29;20042;-74
2022/11/05 10:36:12;;;;;;;9.25;1.48;;;;;;;14.69;100.00;99928.41;4942772;28;20027;-72
2022/11/05 10:38:37;;;;;;;6.80;1.02;;;;;;;14.83;98.58;99571.84;4935258;29;20600;-71
2022/11/05 10:41:40;;;;;;;5.70;1.10;;;;;;;14.52;94.64;99283.44;4938816;29;20122;-72
2022/11/05 10:44:15;;;;;;;2.00;1.10;;;;;;;13.82;93.70;99090.59;4938484;29;20034;-74
2022/11/05 10:47:05;;;;;;;3.92;1.20;;;;;;;14.18;93.35;99221.22;4943791;29;20047;-74
2022/11/05 10:49:58;;;;;;;4.35;1.73;;;;;;;14.29;93.54;99306.41;4942130;29;20083;-71
2022/11/05 10:52:36;;;;;;;10.10;2.30;;;;;;;14.28;90.57;99075.75;4927960;29;20489;-71
2022/11/05 10:55:12;;;;;;;3.85;1.45;;;;;;;13.79;92.09;99148.19;4935508;29;20046;-72
2022/11/05 10:57:39;;;;;;;5.28;1.63;;;;;;;13.73;91.22;99055.19;4937178;29;20337;-71
2022/11/05 11:00:14;;;;;;;4.05;1.33;;;;;;;13.72;93.13;99332.50;4923285;29;20483;-71
2022/11/05 11:02:46;;;;;;;12.73;2.42;;;;;;;12.92;94.32;99182.88;4940549;29;20039;-72
2022/11/05 11:05:21;;;;;;;8.00;1.88;;;;;;;13.21;91.84;99074.25;4938819;29;20071;-72
2022/11/05 11:08:00;;;;;;;6.00;1.33;;;;;;;13.38;93.94;99331.06;4935880;29;20500;-71
2022/11/05 11:10:27;;;;;;;3.28;1.30;;;;;;;13.47;93.52;99314.50;4937841;29;20035;-73
2022/11/05 11:12:53;;;;;;;6.70;1.42;;;;;;;13.72;94.60;99507.66;4920513;29;20047;-72
2022/11/05 11:15:19;;;;;;;5.30;1.17;;;;;;;14.49;93.25;99584.63;4943808;29;20027;-72
2022/11/05 11:17:44;;;;;;;5.07;1.23;;;;;;;15.10;90.16;99451.47;4919659;29;20451;-73
2022/11/05 11:20:31;;;;;;;2.75;0.82;;;;;;;15.16;87.18;99212.16;4940605;29;20091;-71
2022/11/05 11:23:16;;;;;;;2.33;0.90;;;;;;;13.80;86.05;98693.84;4942343;29;20028;-72
2022/11/05 11:25:59;;;;;;;6.93;1.40;;;;;;;13.76;89.22;99096.84;4935158;29;20042;-72
2022/11/05 11:28:31;;;;;;;4.45;1.10;;;;;;;13.86;88.51;99097.13;4922478;29;20121;-72
2022/11/05 11:31:27;;;;;;;3.28;1.20;;;;;;;14.80;89.36;99486.28;4911140;29;20489;-71
2022/11/05 11:34:11;;;;;;;2.95;0.82;;;;;;;14.56;86.80;99118.16;4938001;29;20111;-71
2022/11/05 11:36:49;;;;;;;4.05;0.70;;;;;;;15.18;87.02;99343.66;4956428;28;20564;-74
2022/11/05 11:39:29;;;;;;;4.38;1.20;;;;;;;15.12;84.82;99159.06;4937656;29;20082;-72
2022/11/05 11:41:57;;;;;;;8.00;1.50;;;;;;;14.85;85.48;99156.81;4942347;29;20046;-71
2022/11/05 11:44:29;;;;;;;5.32;1.40;;;;;;;15.37;85.67;99333.69;4958691;28;20038;-73
2022/11/05 11:47:00;;;;;;;6.03;1.05;;;;;;;15.42;83.09;99078.34;4939276;29;20040;-72
2022/11/05 11:49:43;;;;;;;2.90;1.13;;;;;;;15.11;83.13;99001.56;4932684;29;20036;-75
2022/11/05 11:52:32;;;;;;;7.88;0.90;;;;;;;14.79;83.22;99020.69;4936384;29;20121;-72
2022/11/05 11:55:09;;;;;;;3.95;1.13;;;;;;;15.75;80.64;98970.13;4940770;29;20043;-72
2022/11/05 11:57:44;;;;;;;5.78;1.27;;;;;;;14.81;79.80;98604.09;4935299;29;20027;-71
2022/11/05 12:00:10;;;;;;;3.65;0.90;;;;;;;14.81;82.15;98966.75;4908977;29;20032;-72
2022/11/05 12:03:06;;;;;;;5.18;1.30;;;;;;;14.83;81.00;98870.63;4902138;29;20698;-71
2022/11/05 12:05:45;;;;;;;8.43;0.90;;;;;;;15.44;82.01;99208.00;4924868;29;20241;-75
2022/11/05 12:08:13;;;;;;;4.85;1.30;;;;;;;15.40;82.07;99190.69;4926413;29;20063;-75
2022/11/05 12:11:03;;;;;;;2.92;1.17;;;;;;;15.28;81.85;99122.63;4932470;29;20528;-72
2022/11/05 12:13:51;;;;;;;4.80;0.90;;;;;;;15.32;78.80;98701.72;4925803;29;20038;-72
2022/11/05 12:16:40;;;;;;;5.40;1.23;;;;;;;15.11;79.26;98765.03;4927255;29;20048;-74
2022/11/05 12:19:42;;;;;;;1.75;0.88;;;;;;;14.91;83.86;99313.59;4919534;29;20071;-75
2022/11/05 12:22:16;;;;;;;2.60;0.88;;;;;;;14.45;80.59;98780.63;4924596;29;20511;-72
2022/11/05 12:25:12;;;;;;;4.43;1.50;;;;;;;14.68;81.22;99038.44;4940187;29;20084;-71
2022/11/05 12:27:37;;;;;;;5.18;1.30;;;;;;;14.98;80.83;99043.75;4931465;29;20031;-75